Folsom, New Mexico
Current Conditions -  °F | °C
As of 4:54 AM on Sunday 23 Nov 2014 (Local Time) from KTAD Reporting Station
Overcast Overcast  
Wind Chill: 37°   Ceiling: 9000
Heat Index: 42°   Visibility: 10mi
Dew Point: 23°   Wind: 9mph
Humidity: 47%   Direction: 280°W
Pressure: 29.57"   Gusts: NA
Location:  36.85°N, 103.92°W
Report Text: KTAD 231154Z AUTO 28008KT 10SM BKN090 OVC110 06/M05 A2957 RMK AO2 SLP981 T00561050 10089 20028 53003
Loading
Personal Weather Stations






























Interactive Weather Map New forecast layout! Learn more

10-Day Weather Forecast

Advertisements
Track Severe Weather on mobile